Página principal
METAR-TAF:

METAR-TAF

Aeroportos :

Maré, Nova Caledónia

latitude: 21-28-53S, longitude: 168-02-15E, altura: 42 m

METAR: em falta

Hora: 15:40 (04:40 UTC)

Previsão

O boletim foi feito há 11 horas e 40 minutos, às 17:00 UTC
Previsão válida de 22 às 18 UTC a 23 às 18 UTC
Vento 5 kt de este
Visibilidade 10 km ou mais
Poucas nuvensa uma altura de 2000 ft
Nuvens fragmentadasa uma altura de 3500 ft
Nuvens fragmentadasa uma altura de 5000 ft
Probabilidade 40% :
Temporariamente
de 22 às 18 UTC a 23 às 06 UTC
Visibilidade: 4000 m
Nuvens fragmentadasa uma altura de 1000 ft
Nuvens dispersasa uma altura de 2000 ft, Cumulus congestus.
aguaceiros de chuva
Tornando-se
de 22 às 22 UTC a 22 às 24 UTC
Vento 15 kt de es-sudeste
Tornando-se
de 23 às 10 UTC a 23 às 12 UTC
Vento 5 kt de es-nordeste

TAF: NWWR 221700Z 2218/2318 10005KT 9999 FEW020 BKN035 BKN050 PROB40 TEMPO 2218/2306 4000 SHRA BKN010 SCT020TCU BECMG 2222/2224 12015KT BECMG 2310/2312 06005KT

Observações e previsões do tempo de mais de 4000 aeroportos (mensagens METAR e TAF).

As estações disponíveis são os pontos amarelos e vermelhos sobre o mapa.

Mova o rato sobre o mapa para ver o nome da estação.

Depois clique no ponto para visualizar as observações e previsões meteorológicas.

Para alterar o mapa : clique nos botões verdes com uma cruz preta para aumentar o zoom; no botão verde com uma pitada de zoom; ou nas setas verdes para mapas adjacentes.


METAR-TAF: